createdAt,value
2022-09-23T00:02:38.298Z,6.32
2022-09-23T00:07:41.320Z,6.34
2022-09-23T00:12:43.998Z,6.25
2022-09-23T00:17:48.450Z,6.18
2022-09-23T00:22:51.219Z,6.16
2022-09-23T00:27:55.102Z,6.13
2022-09-23T00:32:59.900Z,6.09
2022-09-23T00:38:02.780Z,6.05
2022-09-23T00:43:07.404Z,5.99
2022-09-23T00:48:18.063Z,5.91
2022-09-23T00:53:26.503Z,5.83
2022-09-23T00:58:32.722Z,5.71
2022-09-23T01:03:36.930Z,5.72
2022-09-23T01:08:40.463Z,5.68
2022-09-23T01:13:53.164Z,5.73
2022-09-23T01:19:05.055Z,5.71
2022-09-23T01:24:34.904Z,5.67
2022-09-23T01:30:12.964Z,5.65
2022-09-23T01:35:27.489Z,5.53
2022-09-23T01:40:40.219Z,5.48
2022-09-23T01:45:46.520Z,5.44
2022-09-23T01:50:58.415Z,5.45
2022-09-23T01:56:06.607Z,5.41
2022-09-23T02:01:12.640Z,5.44
2022-09-23T02:06:22.700Z,5.36
2022-09-23T02:11:25.946Z,5.34
2022-09-23T02:16:33.164Z,5.37
2022-09-23T02:21:42.105Z,5.34
2022-09-23T02:26:50.863Z,5.35
2022-09-23T02:32:01.480Z,5.32
2022-09-23T02:37:12.638Z,5.26
2022-09-23T02:42:21.757Z,5.31
2022-09-23T02:47:28.964Z,5.31
2022-09-23T02:52:33.648Z,5.28
2022-09-23T02:57:36.464Z,5.27
2022-09-23T03:03:06.657Z,5.33
2022-09-23T03:08:29.171Z,5.34
2022-09-23T03:13:42.921Z,5.31
2022-09-23T03:18:50.717Z,5.30
2022-09-23T03:23:57.259Z,5.28
2022-09-23T03:29:04.932Z,5.22
2022-09-23T03:34:14.143Z,5.13
2022-09-23T03:39:33.153Z,5.13
2022-09-23T03:44:39.635Z,5.13
2022-09-23T03:49:45.447Z,5.08
2022-09-23T03:54:51.130Z,5.07
2022-09-23T03:59:54.641Z,5.03
2022-09-23T04:04:57.381Z,5.02
2022-09-23T04:10:01.413Z,5.01
2022-09-23T04:15:04.510Z,4.99
2022-09-23T04:20:08.037Z,4.98
2022-09-23T04:25:12.261Z,4.93
2022-09-23T04:30:15.069Z,4.91
2022-09-23T04:35:18.065Z,4.89
2022-09-23T04:40:22.363Z,4.87
2022-09-23T04:45:25.306Z,4.89
2022-09-23T04:50:28.542Z,4.89
2022-09-23T04:55:33.007Z,4.88
2022-09-23T05:00:35.746Z,4.89
2022-09-23T05:05:38.438Z,4.85
2022-09-23T05:10:42.574Z,4.74
2022-09-23T05:15:45.707Z,4.69
2022-09-23T05:20:54.306Z,4.67
2022-09-23T05:26:00.029Z,4.74
2022-09-23T05:31:04.358Z,4.70
2022-09-23T05:36:07.869Z,4.71
2022-09-23T05:41:14.197Z,4.72
2022-09-23T05:46:19.283Z,4.86
2022-09-23T05:51:28.774Z,4.93
2022-09-23T05:56:37.588Z,5.05
2022-09-23T06:01:40.754Z,5.10
2022-09-23T06:06:44.187Z,5.10
2022-09-23T06:11:48.431Z,5.14
2022-09-23T06:16:51.099Z,5.28
2022-09-23T06:21:53.951Z,5.42
2022-09-23T06:26:58.619Z,5.52
2022-09-23T06:32:01.936Z,5.67
2022-09-23T06:37:15.399Z,5.88
2022-09-23T06:42:22.855Z,6.16
2022-09-23T06:47:26.207Z,6.42
2022-09-23T06:52:28.987Z,6.57
2022-09-23T06:57:33.881Z,6.95
2022-09-23T07:02:37.299Z,7.46
2022-09-23T07:07:40.301Z,7.78
2022-09-23T07:12:44.645Z,8.16
2022-09-23T07:17:47.349Z,8.58
2022-09-23T07:22:52.147Z,9.11
2022-09-23T07:27:58.221Z,9.62
2022-09-23T07:33:04.776Z,9.84
2022-09-23T07:38:12.158Z,10.27
2022-09-23T07:43:16.255Z,10.70
2022-09-23T07:48:19.018Z,10.94
2022-09-23T07:53:22.344Z,11.30
2022-09-23T07:58:27.394Z,11.31
2022-09-23T08:03:30.283Z,11.65
2022-09-23T08:08:33.130Z,11.73
2022-09-23T08:13:38.143Z,11.83
2022-09-23T08:18:44.684Z,11.84
2022-09-23T08:23:52.748Z,11.78
2022-09-23T08:28:56.821Z,11.95
2022-09-23T08:34:00.136Z,12.00
2022-09-23T08:39:03.801Z,11.97
2022-09-23T08:44:14.396Z,12.43
2022-09-23T08:49:26.909Z,13.03
2022-09-23T08:54:56.318Z,13.08
2022-09-23T09:00:03.514Z,13.08
2022-09-23T09:05:12.793Z,13.39
2022-09-23T09:10:19.735Z,13.53
2022-09-23T09:15:26.573Z,13.67
2022-09-23T09:20:40.015Z,14.26
2022-09-23T09:25:45.803Z,14.65
2022-09-23T09:30:56.996Z,14.74
2022-09-23T09:36:15.712Z,15.02
2022-09-23T09:41:21.365Z,15.63
2022-09-23T09:46:45.184Z,15.90
2022-09-23T09:51:47.952Z,16.50
2022-09-23T09:56:51.751Z,16.16
2022-09-23T10:02:13.974Z,15.74
2022-09-23T10:07:17.547Z,16.30
2022-09-23T10:12:21.719Z,16.88
2022-09-23T10:17:35.490Z,16.52
2022-09-23T10:22:43.731Z,16.92
2022-09-23T10:27:47.214Z,16.96
2022-09-23T10:32:54.889Z,17.23
2022-09-23T10:37:59.034Z,17.17
2022-09-23T10:43:35.745Z,17.79
2022-09-23T10:48:52.152Z,18.10
2022-09-23T10:54:03.768Z,18.48
2022-09-23T10:59:40.782Z,18.97
2022-09-23T11:05:15.479Z,19.55
2022-09-23T11:10:54.368Z,19.12
2022-09-23T11:16:06.468Z,19.91
2022-09-23T11:21:28.882Z,19.29
2022-09-23T11:26:42.851Z,19.33
2022-09-23T11:31:59.314Z,20.12
2022-09-23T11:37:05.782Z,20.04
2022-09-23T11:42:15.784Z,20.65
2022-09-23T11:47:23.390Z,20.63
2022-09-23T11:52:32.619Z,20.83
2022-09-23T11:57:48.836Z,20.69
2022-09-23T12:03:06.472Z,20.97
2022-09-23T12:08:24.052Z,20.76
2022-09-23T12:13:37.369Z,20.94
2022-09-23T12:18:54.169Z,22.27
2022-09-23T12:24:24.661Z,21.69
2022-09-23T12:29:32.537Z,22.38
2022-09-23T12:34:47.961Z,23.46
2022-09-23T12:39:52.910Z,24.60
2022-09-23T12:45:34.477Z,24.48
2022-09-23T12:50:58.647Z,25.49
2022-09-23T12:56:15.327Z,25.25
2022-09-23T13:01:20.293Z,25.64
2022-09-23T13:06:41.947Z,25.43
2022-09-23T13:11:48.046Z,24.80
2022-09-23T13:16:51.006Z,23.40
2022-09-23T13:22:06.640Z,23.42
2022-09-23T13:27:31.975Z,23.12
2022-09-23T13:32:38.426Z,23.14
2022-09-23T13:37:47.763Z,22.58
2022-09-23T13:42:58.441Z,22.01
2022-09-23T13:48:04.646Z,22.02
2022-09-23T13:53:10.565Z,22.02
2022-09-23T13:58:19.591Z,21.81
2022-09-23T14:03:30.188Z,22.00
2022-09-23T14:08:35.744Z,21.54
2022-09-23T14:13:44.026Z,21.58
2022-09-23T14:18:49.383Z,21.31
2022-09-23T14:23:52.118Z,21.66
2022-09-23T14:28:56.224Z,21.83
2022-09-23T14:33:58.935Z,21.37
2022-09-23T14:39:04.362Z,21.16
2022-09-23T14:44:19.040Z,21.07
2022-09-23T14:49:22.039Z,20.85
2022-09-23T14:54:34.066Z,20.65
2022-09-23T14:59:39.071Z,20.95
2022-09-23T15:04:41.856Z,20.96
2022-09-23T15:09:46.057Z,20.56
2022-09-23T15:14:53.604Z,20.25
2022-09-23T15:19:59.672Z,20.11
2022-09-23T15:30:50.227Z,19.15
2022-09-23T15:35:53.063Z,19.07
2022-09-23T15:40:55.890Z,19.18
2022-09-23T15:46:06.297Z,18.96
2022-09-23T15:51:09.807Z,18.67
2022-09-23T15:56:13.240Z,18.79
2022-09-23T16:01:21.834Z,18.73
2022-09-23T16:06:26.898Z,18.82
2022-09-23T16:11:32.747Z,18.67
2022-09-23T16:16:36.902Z,18.36
2022-09-23T16:21:40.791Z,18.15
2022-09-23T16:26:45.176Z,17.58
2022-09-23T16:31:49.368Z,17.29
2022-09-23T16:36:52.860Z,17.18
2022-09-23T16:41:55.881Z,17.07
2022-09-23T16:47:00.176Z,16.94
2022-09-23T16:52:03.143Z,16.77
2022-09-23T16:57:05.800Z,16.63
2022-09-23T17:02:29.681Z,16.42
2022-09-23T17:07:32.441Z,16.13
2022-09-23T17:12:35.319Z,15.99
2022-09-23T17:17:39.369Z,15.82
2022-09-23T17:22:42.827Z,15.64
2022-09-23T17:27:45.565Z,15.48
2022-09-23T17:32:49.745Z,15.26
2022-09-23T17:37:52.979Z,15.03
2022-09-23T17:42:56.280Z,14.87
2022-09-23T17:48:00.375Z,14.71
2022-09-23T17:53:03.123Z,14.61
2022-09-23T17:58:05.841Z,14.52
2022-09-23T18:03:10.381Z,14.40
2022-09-23T18:08:13.054Z,14.25
2022-09-23T18:13:15.810Z,14.16
2022-09-23T18:18:19.872Z,14.10
2022-09-23T18:23:26.204Z,14.01
2022-09-23T18:28:34.540Z,13.93
2022-09-23T18:33:39.213Z,13.86
2022-09-23T18:38:41.941Z,13.76
2022-09-23T18:43:48.522Z,13.64
2022-09-23T18:49:11.822Z,13.56
2022-09-23T18:54:16.016Z,13.43
2022-09-23T18:59:20.686Z,13.37
2022-09-23T19:04:26.341Z,13.32
2022-09-23T19:09:29.031Z,13.27
2022-09-23T19:14:31.833Z,13.17
2022-09-23T19:19:35.857Z,13.07
2022-09-23T19:24:38.532Z,13.00
2022-09-23T19:29:41.669Z,12.92
2022-09-23T19:34:46.268Z,12.81
2022-09-23T19:39:50.020Z,12.71
2022-09-23T19:44:53.029Z,12.61
2022-09-23T19:49:57.147Z,12.55
2022-09-23T19:54:59.999Z,12.47
2022-09-23T20:00:03.344Z,12.43
2022-09-23T20:05:20.312Z,12.30
2022-09-23T20:10:23.789Z,12.15
2022-09-23T20:15:27.677Z,12.07
2022-09-23T20:20:31.786Z,12.05
2022-09-23T20:25:54.454Z,11.96
2022-09-23T20:30:59.260Z,11.87
2022-09-23T20:36:04.859Z,11.82
2022-09-23T20:41:09.263Z,11.69
2022-09-23T20:46:14.919Z,11.62
2022-09-23T20:51:19.291Z,11.57
2022-09-23T20:56:23.155Z,11.45
2022-09-23T21:01:27.234Z,11.31
2022-09-23T21:06:57.412Z,11.21
2022-09-23T21:12:00.390Z,11.15
2022-09-23T21:17:03.498Z,11.07
2022-09-23T21:22:07.671Z,10.93
2022-09-23T21:27:10.588Z,10.87
2022-09-23T21:32:13.258Z,10.80
2022-09-23T21:37:17.579Z,10.71
2022-09-23T21:42:20.283Z,10.66
2022-09-23T21:47:23.419Z,10.64
2022-09-23T21:52:27.487Z,10.63
2022-09-23T21:57:30.932Z,10.58
2022-09-23T22:02:34.164Z,10.49
2022-09-23T22:07:38.439Z,10.49
2022-09-23T22:12:41.518Z,10.50
2022-09-23T22:17:44.329Z,10.45
2022-09-23T22:22:48.445Z,10.41
2022-09-23T22:28:08.806Z,10.29
2022-09-23T22:33:11.501Z,10.28
2022-09-23T22:38:16.377Z,10.28
2022-09-23T22:43:21.608Z,10.26
2022-09-23T22:48:24.317Z,10.25
2022-09-23T22:53:29.120Z,10.19
2022-09-23T22:58:32.948Z,10.14
2022-09-23T23:03:36.202Z,10.06
2022-09-23T23:08:40.600Z,10.00
2022-09-23T23:13:43.879Z,9.95
2022-09-23T23:18:47.604Z,9.93
2022-09-23T23:23:53.970Z,9.85
2022-09-23T23:28:57.607Z,9.80
2022-09-23T23:34:00.400Z,9.81
2022-09-23T23:39:04.975Z,9.80
2022-09-23T23:44:07.896Z,9.67
2022-09-23T23:49:10.625Z,9.65
2022-09-23T23:54:15.596Z,9.66
2022-09-23T23:59:21.070Z,9.65
